Time;durP1;ratioP1;P1;durP2;ratioP2;P2;SDS_P1;SDS_P2;PMS_P1;PMS_P2;Temp;Humidity;BMP_temperature;BMP_pressure;BME280_temperature;BME280_humidity;BME280_pressure;Samples;Min_cycle;Max_cycle;Signal;HPM_P1;HPM_P2
2022/05/07 00:01:27;;;;;;;;;;;16.20;99.90;;;;;;5103068;28;19934;-88
2022/05/07 00:03:52;;;;;;;;;;;16.10;99.90;;;;;;5101951;28;19916;-88
2022/05/07 00:06:18;;;;;;;;;;;16.10;99.90;;;;;;5102350;28;19911;-88
2022/05/07 00:08:43;;;;;;;;;;;16.10;99.90;;;;;;5083391;28;19959;-87
2022/05/07 00:11:09;;;;;;;;;;;16.00;99.90;;;;;;5102499;28;19904;-88
2022/05/07 00:13:35;;;;;;;;;;;16.10;99.90;;;;;;5103229;28;19942;-88
2022/05/07 00:18:44;;;;;;;;;;;16.00;99.90;;;;;;5102677;28;19988;-88
2022/05/07 00:21:10;;;;;;;;;;;16.00;99.90;;;;;;5084199;28;19905;-89
2022/05/07 00:23:37;;;;;;;;;;;16.00;99.90;;;;;;5101904;28;20180;-88
2022/05/07 00:26:03;;;;;;;;;;;16.00;99.90;;;;;;5101732;28;19904;-88
2022/05/07 00:28:30;;;;;;;;;;;16.00;99.90;;;;;;5101419;28;19908;-88
2022/05/07 00:30:55;;;;;;;;;;;16.00;99.90;;;;;;5101544;28;19912;-88
2022/05/07 00:33:21;;;;;;;;;;;16.00;99.90;;;;;;5083613;28;19916;-88
2022/05/07 00:35:46;;;;;;;;;;;16.00;99.90;;;;;;5101195;28;19988;-88
2022/05/07 00:38:12;;;;;;;;;;;15.90;99.90;;;;;;5101188;28;19911;-88
2022/05/07 00:40:38;;;;;;;;;;;15.90;99.90;;;;;;5101888;28;19927;-88
2022/05/07 00:43:03;;;;;;;;;;;15.90;99.90;;;;;;5083839;28;19975;-88
2022/05/07 00:45:29;;;;;;;;;;;15.90;99.90;;;;;;5083770;28;19904;-88
2022/05/07 00:47:54;;;;;;;;;;;15.90;99.90;;;;;;5101436;28;19971;-88
2022/05/07 00:53:04;;;;;;;;;;;15.70;99.90;;;;;;5096910;28;19911;-88
2022/05/07 00:55:30;;;;;;;;;;;15.80;99.90;;;;;;5083872;28;19912;-88
2022/05/07 00:57:56;;;;;;;;;;;15.80;99.90;;;;;;5102515;28;19920;-88
2022/05/07 01:00:22;;;;;;;;;;;15.80;99.90;;;;;;5101790;28;19939;-88
2022/05/07 01:02:47;;;;;;;;;;;15.70;99.90;;;;;;5083383;28;19997;-87
2022/05/07 01:05:13;;;;;;;;;;;15.70;99.90;;;;;;5094438;28;19904;-88
2022/05/07 01:07:39;;;;;;;;;;;15.70;99.90;;;;;;5100746;28;19957;-88
2022/05/07 01:10:05;;;;;;;;;;;15.60;99.90;;;;;;5100289;28;19904;-88
2022/05/07 01:12:31;;;;;;;;;;;15.60;99.90;;;;;;5101211;28;19946;-87
2022/05/07 01:14:57;;;;;;;;;;;15.60;99.90;;;;;;5100609;28;20198;-88
2022/05/07 01:17:23;;;;;;;;;;;15.50;99.90;;;;;;5083181;28;20245;-88
2022/05/07 01:19:53;;;;;;;;;;;15.50;99.90;;;;;;5100456;28;19904;-88
2022/05/07 01:22:19;;;;;;;;;;;15.40;99.90;;;;;;5100974;28;19930;-88
2022/05/07 01:24:44;;;;;;;;;;;15.30;99.90;;;;;;5101031;28;19904;-88
2022/05/07 01:27:10;;;;;;;;;;;15.30;99.90;;;;;;5101536;28;20142;-88
2022/05/07 01:29:36;;;;;;;;;;;15.30;99.90;;;;;;5083443;28;20243;-87
2022/05/07 01:32:01;;;;;;;;;;;15.30;99.90;;;;;;5101508;28;19926;-87
2022/05/07 01:34:27;;;;;;;;;;;15.40;99.90;;;;;;5082748;28;20184;-87
2022/05/07 01:36:52;;;;;;;;;;;15.30;99.90;;;;;;5083001;28;19973;-88
2022/05/07 01:39:18;;;;;;;;;;;15.30;99.90;;;;;;5101937;28;20222;-88
2022/05/07 01:41:43;;;;;;;;;;;15.30;99.90;;;;;;5101214;28;19904;-88
2022/05/07 01:44:09;;;;;;;;;;;15.30;99.90;;;;;;5101402;28;19944;-88
2022/05/07 01:49:19;;;;;;;;;;;15.30;99.90;;;;;;5104836;28;19911;-89
2022/05/07 01:51:44;;;;;;;;;;;15.20;99.90;;;;;;5105333;28;19967;-88
2022/05/07 01:54:10;;;;;;;;;;;15.10;99.90;;;;;;5104344;28;19927;-88
2022/05/07 01:56:35;;;;;;;;;;;15.10;99.90;;;;;;5104281;28;19923;-88
2022/05/07 01:59:01;;;;;;;;;;;15.10;99.90;;;;;;5105002;28;19983;-87
2022/05/07 02:01:26;;;;;;;;;;;15.10;99.90;;;;;;5105006;28;19904;-88
2022/05/07 02:03:52;;;;;;;;;;;15.10;99.90;;;;;;5087376;28;20192;-88
2022/05/07 02:06:17;;;;;;;;;;;15.00;99.90;;;;;;5104745;28;19908;-87
2022/05/07 02:08:43;;;;;;;;;;;15.00;99.90;;;;;;5105077;28;20006;-88
2022/05/07 02:11:08;;;;;;;;;;;15.00;99.90;;;;;;5104914;28;20105;-87
2022/05/07 02:13:34;;;;;;;;;;;15.00;99.90;;;;;;5104948;28;20062;-88
2022/05/07 02:15:59;;;;;;;;;;;15.00;99.90;;;;;;5104165;28;19912;-88
2022/05/07 02:18:25;;;;;;;;;;;14.90;99.90;;;;;;5086881;28;19998;-88
2022/05/07 02:20:53;;;;;;;;;;;14.90;99.90;;;;;;5086223;28;20304;-88
2022/05/07 02:23:19;;;;;;;;;;;14.90;99.90;;;;;;5066831;28;19905;-87
2022/05/07 02:25:44;;;;;;;;;;;14.80;99.90;;;;;;5065912;28;19908;-88
2022/05/07 02:28:10;;;;;;;;;;;14.70;99.90;;;;;;5102776;28;20193;-88
2022/05/07 02:30:35;;;;;;;;;;;14.70;99.90;;;;;;5103912;28;20192;-90
2022/05/07 02:33:01;;;;;;;;;;;14.70;99.90;;;;;;5086535;28;20391;-87
2022/05/07 02:35:26;;;;;;;;;;;14.70;99.90;;;;;;5103852;28;20219;-87
2022/05/07 02:37:54;;;;;;;;;;;14.70;99.90;;;;;;5085816;28;19911;-91
2022/05/07 02:40:19;;;;;;;;;;;14.60;99.90;;;;;;5086279;28;19904;-88
2022/05/07 02:42:45;;;;;;;;;;;14.70;99.90;;;;;;5105122;28;19953;-88
2022/05/07 02:45:12;;;;;;;;;;;14.70;99.90;;;;;;5104107;28;19904;-87
2022/05/07 02:47:38;;;;;;;;;;;14.70;99.90;;;;;;5104570;28;19911;-88
2022/05/07 02:50:04;;;;;;;;;;;14.70;99.90;;;;;;5104169;28;19987;-88
2022/05/07 02:52:39;;;;;;;;;;;14.60;99.90;;;;;;5104691;28;19974;-94
2022/05/07 02:55:06;;;;;;;;;;;14.70;99.90;;;;;;5085261;28;19919;-88
2022/05/07 02:57:32;;;;;;;;;;;14.60;99.90;;;;;;5103236;28;19908;-88
2022/05/07 02:59:57;;;;;;;;;;;14.60;99.90;;;;;;5084994;28;19982;-88
2022/05/07 03:02:23;;;;;;;;;;;14.70;99.90;;;;;;5085190;28;19987;-88
2022/05/07 03:04:49;;;;;;;;;;;14.70;99.90;;;;;;5084556;28;19904;-88
2022/05/07 03:07:15;;;;;;;;;;;14.60;99.90;;;;;;5085156;28;20468;-88
2022/05/07 03:09:40;;;;;;;;;;;14.60;99.90;;;;;;5103258;28;20182;-88
2022/05/07 03:12:06;;;;;;;;;;;14.60;99.90;;;;;;5103452;28;19904;-87
2022/05/07 03:14:32;;;;;;;;;;;14.60;99.90;;;;;;5103236;28;19919;-88
2022/05/07 03:16:58;;;;;;;;;;;14.60;99.90;;;;;;5104297;28;19908;-88
2022/05/07 03:19:24;;;;;;;;;;;14.60;99.90;;;;;;5103436;28;19949;-88
2022/05/07 03:21:50;;;;;;;;;;;14.60;99.90;;;;;;5103823;28;19908;-88
2022/05/07 03:24:15;;;;;;;;;;;14.60;99.90;;;;;;5103200;28;19979;-88
2022/05/07 03:26:41;;;;;;;;;;;14.60;99.90;;;;;;5085320;28;19946;-88
2022/05/07 03:29:06;;;;;;;;;;;14.60;99.90;;;;;;5103638;28;19904;-88
2022/05/07 03:31:32;;;;;;;;;;;14.50;99.90;;;;;;5096191;28;20215;-88
2022/05/07 03:33:58;;;;;;;;;;;14.50;99.90;;;;;;5103102;28;19939;-87
2022/05/07 03:36:23;;;;;;;;;;;14.50;99.90;;;;;;5085303;28;19916;-88
2022/05/07 03:38:49;;;;;;;;;;;14.50;99.90;;;;;;5102615;28;19950;-88
2022/05/07 03:41:15;;;;;;;;;;;14.40;99.90;;;;;;5084421;28;19912;-88
2022/05/07 03:43:40;;;;;;;;;;;14.40;99.90;;;;;;5102923;28;19908;-88
2022/05/07 03:46:06;;;;;;;;;;;14.30;99.90;;;;;;5102517;28;19942;-88
2022/05/07 03:48:32;;;;;;;;;;;14.30;99.90;;;;;;5084243;28;20364;-88
2022/05/07 03:50:57;;;;;;;;;;;14.30;99.90;;;;;;5101715;28;19908;-88
2022/05/07 03:53:29;;;;;;;;;;;14.30;99.90;;;;;;5102996;28;19904;-88
2022/05/07 03:55:56;;;;;;;;;;;14.30;99.90;;;;;;5102126;28;19912;-88
2022/05/07 03:58:21;;;;;;;;;;;14.30;99.90;;;;;;5084423;28;20134;-88
2022/05/07 04:00:47;;;;;;;;;;;14.20;99.90;;;;;;5102610;28;19918;-88
2022/05/07 04:03:12;;;;;;;;;;;14.10;99.90;;;;;;5102976;28;20201;-88
2022/05/07 04:05:39;;;;;;;;;;;14.10;99.90;;;;;;5103011;28;20208;-88
2022/05/07 04:08:04;;;;;;;;;;;14.00;99.90;;;;;;5102634;28;19926;-88
2022/05/07 04:10:30;;;;;;;;;;;14.00;99.90;;;;;;5085228;28;19907;-88
2022/05/07 04:12:55;;;;;;;;;;;14.00;99.90;;;;;;5085158;28;19904;-88
2022/05/07 04:15:22;;;;;;;;;;;14.00;99.90;;;;;;5102699;28;19916;-87
2022/05/07 04:17:47;;;;;;;;;;;13.90;99.90;;;;;;5102808;28;20184;-88
2022/05/07 04:20:13;;;;;;;;;;;13.80;99.90;;;;;;5101673;28;19904;-88
2022/05/07 04:22:39;;;;;;;;;;;13.90;99.90;;;;;;5084358;28;19911;-88
2022/05/07 04:25:04;;;;;;;;;;;13.90;99.90;;;;;;5101498;28;20200;-87
2022/05/07 04:27:30;;;;;;;;;;;13.80;99.90;;;;;;5101577;28;20235;-88
2022/05/07 04:29:57;;;;;;;;;;;13.80;99.90;;;;;;5101431;28;19904;-88
2022/05/07 04:32:23;;;;;;;;;;;13.80;99.90;;;;;;5095780;28;19904;-88
2022/05/07 04:34:49;;;;;;;;;;;13.80;99.90;;;;;;5083760;28;19915;-88
2022/05/07 04:37:14;;;;;;;;;;;13.70;99.90;;;;;;5101915;28;19916;-88
2022/05/07 04:39:40;;;;;;;;;;;13.60;99.90;;;;;;5102387;28;19971;-88
2022/05/07 04:42:05;;;;;;;;;;;13.70;99.90;;;;;;5101959;28;19912;-88
2022/05/07 04:44:31;;;;;;;;;;;13.60;99.90;;;;;;5102420;28;19928;-88
2022/05/07 04:46:57;;;;;;;;;;;13.60;99.90;;;;;;5102055;28;20219;-88
2022/05/07 04:49:23;;;;;;;;;;;13.60;99.90;;;;;;5102173;28;19984;-88
2022/05/07 04:51:52;;;;;;;;;;;13.60;99.90;;;;;;5102284;28;19904;-88
2022/05/07 04:54:20;;;;;;;;;;;13.70;99.90;;;;;;5102441;28;19935;-88
2022/05/07 04:56:46;;;;;;;;;;;13.60;99.90;;;;;;5101162;28;19926;-88
2022/05/07 04:59:11;;;;;;;;;;;13.60;99.90;;;;;;5101218;28;19908;-88
2022/05/07 05:01:37;;;;;;;;;;;13.70;99.90;;;;;;5101529;28;19923;-88
2022/05/07 05:04:03;;;;;;;;;;;13.70;99.90;;;;;;5101372;28;19908;-88
2022/05/07 05:06:29;;;;;;;;;;;13.70;99.90;;;;;;5101058;28;19908;-88
2022/05/07 05:08:54;;;;;;;;;;;13.60;99.90;;;;;;5100594;28;19939;-88
2022/05/07 05:11:20;;;;;;;;;;;13.60;99.90;;;;;;5083366;28;19971;-88
2022/05/07 05:13:45;;;;;;;;;;;13.60;99.90;;;;;;5100875;28;19904;-84
2022/05/07 05:16:11;;;;;;;;;;;13.60;99.90;;;;;;5101895;28;19912;-84
2022/05/07 05:18:36;;;;;;;;;;;13.50;99.90;;;;;;5094634;28;19912;-84
2022/05/07 05:21:02;;;;;;;;;;;13.60;99.90;;;;;;5089872;28;19930;-84
2022/05/07 05:23:27;;;;;;;;;;;13.60;99.90;;;;;;5090057;28;19995;-84
2022/05/07 05:25:53;;;;;;;;;;;13.60;99.90;;;;;;5090036;28;19930;-84
2022/05/07 05:28:19;;;;;;;;;;;13.60;99.90;;;;;;5089743;28;20299;-84
2022/05/07 05:30:46;;;;;;;;;;;13.50;99.90;;;;;;5089937;28;19912;-84
2022/05/07 05:33:11;;;;;;;;;;;13.40;99.90;;;;;;5087348;28;20003;-84
2022/05/07 05:35:38;;;;;;;;;;;13.30;99.90;;;;;;5089404;28;20012;-84
2022/05/07 05:38:04;;;;;;;;;;;13.30;99.90;;;;;;5089555;28;19908;-84
2022/05/07 05:40:29;;;;;;;;;;;13.40;99.90;;;;;;5096198;28;20291;-84
2022/05/07 05:42:55;;;;;;;;;;;13.40;99.90;;;;;;5093249;28;19961;-84
2022/05/07 05:45:20;;;;;;;;;;;13.50;99.90;;;;;;5093948;28;20053;-84
2022/05/07 05:47:46;;;;;;;;;;;13.50;99.90;;;;;;5079049;28;19908;-84
2022/05/07 05:50:12;;;;;;;;;;;13.50;99.90;;;;;;5095986;28;19905;-84
2022/05/07 05:52:37;;;;;;;;;;;13.50;99.90;;;;;;5094752;28;20241;-84
2022/05/07 05:55:03;;;;;;;;;;;13.50;99.90;;;;;;5090181;28;19995;-84
2022/05/07 05:57:29;;;;;;;;;;;13.60;99.90;;;;;;5090382;28;20444;-84
2022/05/07 05:59:54;;;;;;;;;;;13.60;99.90;;;;;;5095753;28;19911;-84
2022/05/07 06:02:20;;;;;;;;;;;13.80;99.90;;;;;;5094210;28;19963;-84
2022/05/07 06:04:45;;;;;;;;;;;13.80;99.90;;;;;;5074714;28;19919;-84
2022/05/07 06:07:11;;;;;;;;;;;13.90;99.90;;;;;;5071899;28;19979;-84
2022/05/07 06:09:37;;;;;;;;;;;14.10;99.90;;;;;;5089942;28;20066;-84
2022/05/07 06:12:02;;;;;;;;;;;14.10;99.90;;;;;;5099757;28;19904;-84
2022/05/07 06:14:28;;;;;;;;;;;14.30;99.90;;;;;;5093511;28;19904;-84
2022/05/07 06:16:53;;;;;;;;;;;14.50;99.90;;;;;;5092678;28;19912;-84
2022/05/07 06:19:19;;;;;;;;;;;14.70;99.90;;;;;;5091411;28;20008;-84
2022/05/07 06:21:44;;;;;;;;;;;14.80;99.90;;;;;;5094111;28;19939;-84
2022/05/07 06:29:38;;;;;;;;;;;15.10;99.90;;;;;;5089562;28;19915;-83
2022/05/07 06:32:04;;;;;;;;;;;15.30;99.90;;;;;;5093215;28;20296;-83
2022/05/07 06:34:29;;;;;;;;;;;15.40;99.90;;;;;;5095055;28;19916;-83
2022/05/07 06:36:57;;;;;;;;;;;15.50;99.90;;;;;;5093568;28;20334;-84
2022/05/07 06:39:23;;;;;;;;;;;15.50;99.90;;;;;;5079622;28;19908;-83
2022/05/07 06:41:49;;;;;;;;;;;15.40;99.90;;;;;;5097181;28;20361;-83
2022/05/07 06:44:14;;;;;;;;;;;15.50;99.90;;;;;;5075506;28;20376;-83
2022/05/07 06:46:40;;;;;;;;;;;15.50;99.90;;;;;;5094273;28;19958;-83
2022/05/07 06:49:06;;;;;;;;;;;15.40;99.90;;;;;;5092979;28;20156;-83
2022/05/07 06:51:33;;;;;;;;;;;15.50;99.90;;;;;;5093637;28;19908;-83
2022/05/07 06:53:59;;;;;;;;;;;15.50;99.90;;;;;;5094104;28;19909;-84
2022/05/07 06:56:24;;;;;;;;;;;15.50;99.90;;;;;;5093204;28;20391;-84
2022/05/07 06:58:50;;;;;;;;;;;15.60;99.90;;;;;;5093177;28;19912;-84
2022/05/07 07:01:15;;;;;;;;;;;15.60;99.90;;;;;;5092974;28;19908;-84
2022/05/07 07:03:41;;;;;;;;;;;15.80;99.90;;;;;;5093082;28;19916;-84
2022/05/07 07:06:06;;;;;;;;;;;15.90;99.90;;;;;;5092914;28;19908;-84
2022/05/07 07:08:32;;;;;;;;;;;16.10;99.90;;;;;;5092919;28;19916;-83
2022/05/07 07:10:58;;;;;;;;;;;16.20;99.90;;;;;;5093009;28;20007;-84
2022/05/07 07:13:24;;;;;;;;;;;16.20;99.90;;;;;;5093022;28;20002;-84
2022/05/07 07:15:50;;;;;;;;;;;16.30;99.90;;;;;;5074391;28;20007;-84
2022/05/07 07:18:16;;;;;;;;;;;16.40;99.90;;;;;;5092784;28;19962;-84
2022/05/07 07:20:43;;;;;;;;;;;16.40;99.90;;;;;;5092454;28;20379;-84
2022/05/07 07:23:12;;;;;;;;;;;16.30;99.90;;;;;;5092672;28;19998;-84
2022/05/07 07:25:42;;;;;;;;;;;16.30;99.90;;;;;;5074420;28;19908;-84
2022/05/07 07:28:08;;;;;;;;;;;16.40;99.90;;;;;;5092461;28;19987;-84
2022/05/07 07:30:33;;;;;;;;;;;16.40;99.90;;;;;;5092255;28;19912;-84
2022/05/07 07:32:59;;;;;;;;;;;16.40;99.90;;;;;;5092631;28;20388;-84
2022/05/07 07:35:25;;;;;;;;;;;16.50;99.90;;;;;;5092324;28;20372;-84
2022/05/07 07:37:50;;;;;;;;;;;16.50;99.90;;;;;;5074149;28;19915;-86
2022/05/07 07:40:16;;;;;;;;;;;16.60;99.90;;;;;;5092723;28;19908;-86
2022/05/07 07:42:42;;;;;;;;;;;16.60;99.90;;;;;;5090773;28;19909;-86
2022/05/07 07:48:03;;;;;;;;;;;16.70;99.90;;;;;;5091255;28;20403;-85
2022/05/07 07:50:30;;;;;;;;;;;16.80;99.90;;;;;;5092088;28;19912;-85
2022/05/07 07:52:57;;;;;;;;;;;16.90;99.90;;;;;;5067547;28;19993;-82
2022/05/07 07:55:23;;;;;;;;;;;17.10;99.90;;;;;;5085290;28;20007;-81
2022/05/07 07:57:49;;;;;;;;;;;17.20;99.90;;;;;;5091962;28;20031;-81
2022/05/07 08:00:15;;;;;;;;;;;17.20;99.90;;;;;;5091853;28;20386;-82
2022/05/07 08:02:51;;;;;;;;;;;17.30;99.90;;;;;;5091670;28;19920;-82
2022/05/07 08:05:17;;;;;;;;;;;17.40;99.90;;;;;;5085534;28;19908;-82
2022/05/07 08:13:14;;;;;;;;;;;17.90;99.90;;;;;;5091652;28;19954;-83
2022/05/07 08:15:41;;;;;;;;;;;17.90;99.90;;;;;;5091996;28;19916;-82
2022/05/07 08:18:07;;;;;;;;;;;18.00;99.90;;;;;;5091573;28;19912;-82
2022/05/07 08:20:32;;;;;;;;;;;18.10;99.90;;;;;;5091200;28;19921;-81
2022/05/07 08:22:58;;;;;;;;;;;18.20;99.90;;;;;;5091275;28;19908;-81
2022/05/07 08:25:23;;;;;;;;;;;18.30;99.90;;;;;;5091433;28;19931;-81
2022/05/07 08:27:49;;;;;;;;;;;18.40;99.90;;;;;;5091235;28;20288;-86
2022/05/07 08:30:14;;;;;;;;;;;18.50;99.90;;;;;;5073059;28;20592;-84
2022/05/07 08:32:40;;;;;;;;;;;18.70;99.90;;;;;;5073062;28;19915;-83
2022/05/07 08:35:06;;;;;;;;;;;18.70;99.90;;;;;;5072819;28;20269;-82
2022/05/07 08:37:31;;;;;;;;;;;18.80;99.90;;;;;;5091116;28;20357;-82
2022/05/07 08:40:01;;;;;;;;;;;18.90;99.90;;;;;;5090977;28;19977;-82
2022/05/07 08:42:28;;;;;;;;;;;18.80;99.90;;;;;;5090864;28;19915;-82
2022/05/07 08:44:55;;;;;;;;;;;18.90;99.90;;;;;;5090973;28;20294;-82
2022/05/07 08:47:23;;;;;;;;;;;19.00;99.90;;;;;;5090816;28;19908;-82
2022/05/07 08:49:52;;;;;;;;;;;19.10;99.90;;;;;;5091037;28;19912;-82
2022/05/07 08:52:19;;;;;;;;;;;19.10;99.90;;;;;;5090792;28;19916;-82
2022/05/07 08:54:45;;;;;;;;;;;19.20;99.90;;;;;;5090699;28;19957;-82
2022/05/07 08:57:11;;;;;;;;;;;19.20;99.90;;;;;;5090722;28;19912;-83
2022/05/07 08:59:37;;;;;;;;;;;19.40;99.90;;;;;;5090688;28;19908;-82
2022/05/07 09:02:03;;;;;;;;;;;19.50;99.90;;;;;;5090640;28;19919;-82
2022/05/07 09:04:28;;;;;;;;;;;19.60;99.90;;;;;;5090530;28;19925;-83
2022/05/07 09:07:03;;;;;;;;;;;19.70;99.90;;;;;;5090830;28;20380;-83
2022/05/07 09:09:31;;;;;;;;;;;19.70;99.90;;;;;;5072321;28;19916;-83
2022/05/07 09:11:57;;;;;;;;;;;19.70;99.90;;;;;;5090640;28;19922;-82
2022/05/07 09:14:29;;;;;;;;;;;19.80;99.90;;;;;;5090437;28;20447;-82
2022/05/07 09:16:58;;;;;;;;;;;19.80;99.90;;;;;;5090547;28;19970;-82
2022/05/07 09:19:25;;;;;;;;;;;19.90;99.90;;;;;;5090459;28;19908;-82
2022/05/07 09:21:54;;;;;;;;;;;20.00;99.90;;;;;;5072034;28;19915;-82
2022/05/07 09:24:21;;;;;;;;;;;19.90;99.90;;;;;;5090450;28;19908;-82
2022/05/07 09:26:47;;;;;;;;;;;20.00;99.90;;;;;;5089885;28;19912;-82
2022/05/07 09:29:13;;;;;;;;;;;20.10;99.90;;;;;;5090161;28;20007;-82
2022/05/07 09:31:43;;;;;;;;;;;20.20;99.90;;;;;;5090639;28;19908;-82
2022/05/07 09:36:59;;;;;;;;;;;20.30;99.90;;;;;;5090443;28;19970;-82
2022/05/07 09:39:32;;;;;;;;;;;20.40;99.90;;;;;;5089993;28;19908;-82
2022/05/07 09:41:58;;;;;;;;;;;20.20;99.90;;;;;;5090315;28;20003;-82
2022/05/07 09:44:26;;;;;;;;;;;20.30;99.90;;;;;;5090047;28;20372;-82
2022/05/07 09:46:52;;;;;;;;;;;20.40;99.90;;;;;;5090470;28;19953;-82
2022/05/07 09:49:18;;;;;;;;;;;20.50;99.90;;;;;;5071784;28;19912;-82
2022/05/07 09:51:44;;;;;;;;;;;20.70;99.90;;;;;;5089993;28;19915;-82
2022/05/07 09:59:38;;;;;;;;;;;21.00;99.90;;;;;;5084545;28;19914;-82
2022/05/07 10:02:09;;;;;;;;;;;20.80;99.90;;;;;;5089909;28;20387;-82
2022/05/07 10:04:48;;;;;;;;;;;20.50;99.90;;;;;;5071592;28;20166;-82
2022/05/07 10:07:32;;;;;;;;;;;20.70;99.90;;;;;;5093868;28;20426;-82
2022/05/07 10:10:14;;;;;;;;;;;21.00;99.90;;;;;;5094236;28;19908;-82
2022/05/07 10:12:43;;;;;;;;;;;21.10;99.90;;;;;;5093839;28;19908;-82
2022/05/07 10:15:09;;;;;;;;;;;21.20;99.90;;;;;;5087634;28;19924;-82
2022/05/07 10:17:35;;;;;;;;;;;21.30;99.90;;;;;;5068938;28;19981;-82
2022/05/07 10:20:13;;;;;;;;;;;21.30;99.90;;;;;;5093874;28;19908;-82
2022/05/07 10:22:39;;;;;;;;;;;21.30;99.90;;;;;;5088265;28;19908;-82
2022/05/07 10:25:08;;;;;;;;;;;21.20;99.90;;;;;;5093687;28;20376;-82
2022/05/07 10:27:38;;;;;;;;;;;21.10;99.90;;;;;;5093830;28;19996;-82
2022/05/07 10:30:08;;;;;;;;;;;21.20;99.90;;;;;;5093513;28;19908;-81
2022/05/07 10:32:47;;;;;;;;;;;21.20;99.90;;;;;;5093088;28;20280;-82
2022/05/07 10:35:14;;;;;;;;;;;21.40;99.90;;;;;;5074711;28;19926;-81
2022/05/07 10:37:43;;;;;;;;;;;21.40;99.90;;;;;;5093219;28;19916;-82
2022/05/07 10:40:10;;;;;;;;;;;21.60;99.90;;;;;;5093639;28;19912;-82
2022/05/07 10:42:39;;;;;;;;;;;21.60;99.90;;;;;;5075367;28;20848;-81
2022/05/07 10:45:06;;;;;;;;;;;21.60;99.30;;;;;;5093565;28;19999;-82
2022/05/07 10:47:31;;;;;;;;;;;21.70;99.70;;;;;;5093342;28;19938;-82
2022/05/07 10:50:06;;;;;;;;;;;21.70;98.60;;;;;;5093233;28;19908;-81
2022/05/07 10:52:32;;;;;;;;;;;21.80;98.60;;;;;;5093408;28;19908;-81
2022/05/07 10:55:09;;;;;;;;;;;21.80;98.70;;;;;;5074999;28;19912;-82
2022/05/07 10:57:42;;;;;;;;;;;21.90;98.00;;;;;;5092973;28;19923;-81
2022/05/07 11:00:11;;;;;;;;;;;21.90;96.60;;;;;;5093076;28;19951;-81
2022/05/07 11:02:37;;;;;;;;;;;22.00;97.70;;;;;;5092920;28;20015;-82
2022/05/07 11:05:03;;;;;;;;;;;22.10;96.60;;;;;;5093037;28;20396;-81
2022/05/07 11:07:29;;;;;;;;;;;22.30;96.10;;;;;;5074775;28;19908;-82
2022/05/07 11:09:55;;;;;;;;;;;22.50;97.20;;;;;;5092941;28;19908;-81
2022/05/07 11:12:21;;;;;;;;;;;22.40;98.30;;;;;;5092752;28;19991;-81
2022/05/07 11:14:46;;;;;;;;;;;22.30;98.20;;;;;;5092921;28;19912;-81
2022/05/07 11:17:12;;;;;;;;;;;22.40;97.90;;;;;;5090830;28;19919;-82
2022/05/07 11:19:38;;;;;;;;;;;22.40;98.60;;;;;;5092634;28;19912;-82
2022/05/07 11:22:05;;;;;;;;;;;22.60;97.30;;;;;;5092854;28;20144;-82
2022/05/07 11:24:32;;;;;;;;;;;22.70;98.30;;;;;;5092879;28;19919;-82
2022/05/07 11:27:02;;;;;;;;;;;22.70;97.70;;;;;;5074455;28;19912;-81
2022/05/07 11:29:28;;;;;;;;;;;22.40;97.80;;;;;;5092395;28;19912;-81
2022/05/07 11:31:55;;;;;;;;;;;22.40;98.70;;;;;;5092393;28;19908;-81
2022/05/07 11:34:47;;;;;;;;;;;22.50;98.30;;;;;;5092349;28;19970;-83
2022/05/07 11:37:19;;;;;;;;;;;22.60;98.30;;;;;;5087478;28;19916;-83
2022/05/07 11:39:47;;;;;;;;;;;22.80;98.00;;;;;;5092512;28;19953;-83
2022/05/07 11:42:25;;;;;;;;;;;22.80;97.30;;;;;;5092340;28;19915;-82
2022/05/07 11:47:36;;;;;;;;;;;22.60;96.90;;;;;;5091849;28;20314;-82
2022/05/07 11:50:07;;;;;;;;;;;22.60;96.00;;;;;;5092000;28;19909;-84
2022/05/07 11:52:33;;;;;;;;;;;22.40;96.40;;;;;;5073445;28;19908;-86
2022/05/07 11:55:04;;;;;;;;;;;22.20;96.80;;;;;;5091812;28;19912;-85
2022/05/07 11:57:30;;;;;;;;;;;22.30;96.80;;;;;;5073941;28;19938;-86
2022/05/07 11:59:56;;;;;;;;;;;22.30;96.00;;;;;;5092134;28;20400;-85
2022/05/07 12:02:21;;;;;;;;;;;22.40;96.70;;;;;;5091822;28;20011;-85
2022/05/07 12:04:57;;;;;;;;;;;22.50;96.40;;;;;;5073278;28;19912;-84
2022/05/07 12:07:22;;;;;;;;;;;22.60;96.10;;;;;;5091689;28;19908;-84
2022/05/07 12:09:48;;;;;;;;;;;22.60;96.00;;;;;;5091777;28;19908;-84
2022/05/07 12:12:13;;;;;;;;;;;22.70;96.40;;;;;;5091666;28;19908;-84
2022/05/07 12:14:40;;;;;;;;;;;23.00;95.50;;;;;;5091681;28;19913;-85
2022/05/07 12:19:49;;;;;;;;;;;23.10;95.30;;;;;;5091511;28;19919;-84
2022/05/07 12:30:44;;;;;;;;;;;23.40;94.90;;;;;;5027031;28;20397;-83
2022/05/07 12:33:09;;;;;;;;;;;23.20;94.70;;;;;;5076379;28;19908;-83
2022/05/07 12:35:35;;;;;;;;;;;23.00;94.80;;;;;;5090257;28;19916;-83
2022/05/07 12:38:01;;;;;;;;;;;23.20;95.40;;;;;;5073058;28;19908;-83
2022/05/07 12:40:26;;;;;;;;;;;23.10;95.30;;;;;;5091224;28;19908;-83
2022/05/07 12:42:53;;;;;;;;;;;23.10;94.80;;;;;;5091339;28;19967;-83
2022/05/07 12:45:19;;;;;;;;;;;23.20;93.80;;;;;;5090989;28;19920;-83
2022/05/07 12:47:45;;;;;;;;;;;23.20;94.30;;;;;;5091037;28;19912;-83
2022/05/07 12:50:10;;;;;;;;;;;23.10;94.10;;;;;;5090731;28;20036;-83
2022/05/07 12:52:36;;;;;;;;;;;23.10;94.10;;;;;;5090915;28;19908;-83
2022/05/07 12:55:01;;;;;;;;;;;23.20;94.10;;;;;;5090755;28;20393;-83
2022/05/07 12:57:28;;;;;;;;;;;23.40;94.90;;;;;;5090862;28;20397;-83
2022/05/07 12:59:53;;;;;;;;;;;23.40;94.30;;;;;;5090836;28;19915;-83
2022/05/07 13:02:19;;;;;;;;;;;23.40;94.50;;;;;;5090593;28;19924;-83
2022/05/07 13:04:45;;;;;;;;;;;23.20;94.00;;;;;;5072659;28;19927;-83
2022/05/07 13:07:10;;;;;;;;;;;23.00;95.00;;;;;;5090776;28;19912;-83
2022/05/07 13:09:38;;;;;;;;;;;23.30;95.20;;;;;;5089623;28;20450;-84
2022/05/07 13:12:03;;;;;;;;;;;23.40;94.60;;;;;;5090467;28;19916;-83
2022/05/07 13:14:32;;;;;;;;;;;23.40;95.90;;;;;;5090537;28;19908;-84
2022/05/07 13:16:58;;;;;;;;;;;23.60;95.90;;;;;;5090391;28;19916;-84
2022/05/07 13:19:24;;;;;;;;;;;23.70;96.00;;;;;;5090428;28;19908;-83
2022/05/07 13:21:49;;;;;;;;;;;23.70;95.60;;;;;;5090388;28;20327;-83
2022/05/07 13:24:16;;;;;;;;;;;23.50;96.20;;;;;;5072249;28;19908;-83
2022/05/07 13:26:41;;;;;;;;;;;23.80;95.70;;;;;;5090544;28;20007;-84
2022/05/07 13:29:07;;;;;;;;;;;23.90;95.50;;;;;;5090282;28;20423;-83
2022/05/07 13:31:33;;;;;;;;;;;24.00;96.00;;;;;;5083446;28;19942;-82
2022/05/07 13:34:02;;;;;;;;;;;24.00;96.80;;;;;;5090024;28;19943;-83
2022/05/07 13:36:27;;;;;;;;;;;24.00;96.90;;;;;;5089993;28;19941;-83
2022/05/07 13:38:54;;;;;;;;;;;24.30;96.20;;;;;;5072021;28;19912;-83
2022/05/07 13:41:21;;;;;;;;;;;24.40;96.40;;;;;;5089443;28;19908;-83
2022/05/07 13:43:47;;;;;;;;;;;24.40;96.80;;;;;;5090186;28;19908;-82
2022/05/07 13:46:13;;;;;;;;;;;24.50;96.70;;;;;;5090269;28;19915;-83
2022/05/07 13:48:38;;;;;;;;;;;24.50;96.60;;;;;;5089947;28;20416;-83
2022/05/07 13:51:07;;;;;;;;;;;24.90;96.30;;;;;;5089904;28;19908;-83
2022/05/07 13:53:33;;;;;;;;;;;25.50;96.00;;;;;;5089895;28;19958;-83
2022/05/07 13:55:59;;;;;;;;;;;26.30;95.70;;;;;;5055190;28;19938;-83
2022/05/07 13:58:24;;;;;;;;;;;27.50;94.90;;;;;;5087761;28;19916;-85
2022/05/07 14:00:51;;;;;;;;;;;28.30;93.40;;;;;;5075112;28;19987;-83
2022/05/07 14:03:17;;;;;;;;;;;28.50;93.00;;;;;;5090170;28;19927;-84
2022/05/07 14:05:43;;;;;;;;;;;28.90;92.50;;;;;;5071425;28;19912;-84
2022/05/07 14:08:08;;;;;;;;;;;29.00;92.60;;;;;;5089925;28;19912;-83
2022/05/07 14:10:35;;;;;;;;;;;29.60;91.80;;;;;;5089745;28;20372;-85
2022/05/07 14:13:01;;;;;;;;;;;29.60;91.30;;;;;;5089953;28;19985;-82
2022/05/07 14:15:27;;;;;;;;;;;29.30;91.70;;;;;;5089638;28;19916;-83
2022/05/07 14:17:52;;;;;;;;;;;30.40;91.30;;;;;;5089773;28;20421;-83
2022/05/07 14:20:18;;;;;;;;;;;30.60;90.20;;;;;;5089690;28;19959;-82
2022/05/07 14:22:44;;;;;;;;;;;30.00;90.50;;;;;;5089555;28;19950;-83
2022/05/07 14:25:09;;;;;;;;;;;30.60;90.00;;;;;;5071539;28;19909;-83
2022/05/07 14:27:40;;;;;;;;;;;30.90;90.10;;;;;;5089684;28;20232;-84
2022/05/07 14:30:06;;;;;;;;;;;32.10;88.00;;;;;;5089491;28;20295;-86
2022/05/07 14:32:31;;;;;;;;;;;32.40;86.20;;;;;;5089648;28;19909;-85
2022/05/07 14:34:57;;;;;;;;;;;33.90;82.90;;;;;;5091425;28;19919;-85
2022/05/07 14:37:23;;;;;;;;;;;33.20;82.20;;;;;;5092281;28;19919;-85
2022/05/07 14:39:48;;;;;;;;;;;33.10;81.50;;;;;;5077317;28;19908;-83
2022/05/07 14:42:14;;;;;;;;;;;33.50;80.60;;;;;;5083398;28;19908;-86
2022/05/07 14:44:39;;;;;;;;;;;33.90;77.30;;;;;;5089489;28;19915;-85
2022/05/07 14:47:05;;;;;;;;;;;33.00;77.00;;;;;;5089524;28;19912;-84
2022/05/07 14:49:31;;;;;;;;;;;32.90;77.10;;;;;;5089247;28;19908;-85
2022/05/07 14:51:56;;;;;;;;;;;33.50;76.30;;;;;;5090862;28;19914;-86
2022/05/07 14:54:22;;;;;;;;;;;33.20;74.10;;;;;;5093081;28;19930;-85
2022/05/07 14:56:47;;;;;;;;;;;33.20;73.20;;;;;;5093105;28;19916;-85